createdAt,value
2023-04-18T00:00:31.643Z,100689.78
2023-04-18T00:01:52.951Z,100691.59
2023-04-18T00:03:15.895Z,100691.78
2023-04-18T00:04:40.717Z,100690.41
2023-04-18T00:06:03.635Z,100695.63
2023-04-18T00:08:10.245Z,100696.63
2023-04-18T00:09:35.823Z,100687.53
2023-04-18T00:10:57.442Z,100684.34
2023-04-18T00:12:21.065Z,100692.09
2023-04-18T00:13:47.601Z,100695.81
2023-04-18T00:15:11.682Z,100690.41
2023-04-18T00:16:36.396Z,100695.63
2023-04-18T00:18:00.772Z,100698.31
2023-04-18T00:19:22.464Z,100696.50
2023-04-18T00:20:48.650Z,100695.63
2023-04-18T00:22:14.041Z,100694.78
2023-04-18T00:23:39.994Z,100693.94
2023-04-18T00:25:53.870Z,100695.13
2023-04-18T00:27:45.100Z,100692.59
2023-04-18T00:29:25.987Z,100694.28
2023-04-18T00:30:51.883Z,100698.16
2023-04-18T00:32:26.036Z,100683.34
2023-04-18T00:34:44.804Z,100679.97
2023-04-18T00:36:21.636Z,100677.81
2023-04-18T00:37:44.002Z,100689.75
2023-04-18T00:39:08.231Z,100689.75
2023-04-18T00:40:32.417Z,100693.28
2023-04-18T00:41:54.396Z,100686.56
2023-04-18T00:43:20.521Z,100691.41
2023-04-18T00:47:43.255Z,100687.41
2023-04-18T00:49:27.370Z,100687.56
2023-04-18T00:51:00.371Z,100689.41
2023-04-18T00:56:27.746Z,100685.22
2023-04-18T00:57:49.772Z,100671.41
2023-04-18T00:59:12.083Z,100688.53
2023-04-18T01:00:34.016Z,100686.03
2023-04-18T01:02:02.401Z,100686.03
2023-04-18T01:03:27.899Z,100682.50
2023-04-18T01:05:01.520Z,100685.38
2023-04-18T01:06:26.433Z,100683.69
2023-04-18T01:07:55.536Z,100681.16
2023-04-18T01:09:19.726Z,100677.94
2023-04-18T01:10:43.650Z,100686.69
2023-04-18T01:12:09.771Z,100680.63
2023-04-18T01:13:30.814Z,100684.34
2023-04-18T01:15:28.986Z,100670.53
2023-04-18T01:17:10.930Z,100687.03
2023-04-18T01:18:45.705Z,100679.28
2023-04-18T01:21:52.467Z,100683.13
2023-04-18T01:23:26.226Z,100689.38
2023-04-18T01:26:52.131Z,100690.56
2023-04-18T01:28:19.686Z,100685.16
2023-04-18T01:29:47.004Z,100689.69
2023-04-18T01:31:14.935Z,100679.09
2023-04-18T01:32:41.156Z,100690.84
2023-04-18T01:34:08.732Z,100692.56
2023-04-18T01:35:33.366Z,100696.25
2023-04-18T01:36:58.401Z,100686.50
2023-04-18T01:38:23.803Z,100685.66
2023-04-18T01:39:47.915Z,100690.84
2023-04-18T01:41:10.751Z,100683.81
2023-04-18T01:42:33.089Z,100685.81
2023-04-18T01:43:55.340Z,100690.22
2023-04-18T01:45:17.320Z,100688.84
2023-04-18T01:46:40.137Z,100688.84
2023-04-18T01:48:02.534Z,100680.78
2023-04-18T01:49:25.064Z,100687.19
2023-04-18T01:50:46.224Z,100687.31
2023-04-18T01:52:08.713Z,100686.66
2023-04-18T01:53:30.985Z,100679.59
2023-04-18T01:54:58.118Z,100687.81
2023-04-18T01:56:21.851Z,100685.97
2023-04-18T01:57:46.735Z,100676.72
2023-04-18T01:59:09.128Z,100689.81
2023-04-18T02:00:31.308Z,100684.44
2023-04-18T02:01:52.628Z,100685.28
2023-04-18T02:03:14.920Z,100687.31
2023-04-18T02:04:37.387Z,100686.28
2023-04-18T02:05:59.838Z,100683.59
2023-04-18T02:07:22.415Z,100682.25
2023-04-18T02:08:44.465Z,100688.50
2023-04-18T02:10:06.738Z,100684.09
2023-04-18T02:11:29.983Z,100686.28
2023-04-18T02:12:52.452Z,100683.59
2023-04-18T02:14:15.391Z,100687.13
2023-04-18T02:15:36.554Z,100685.44
2023-04-18T02:16:59.195Z,100686.44
2023-04-18T02:18:22.170Z,100683.75
2023-04-18T02:19:44.516Z,100682.75
2023-04-18T02:21:07.440Z,100688.28
2023-04-18T02:22:28.522Z,100688.13
2023-04-18T02:23:51.198Z,100684.59
2023-04-18T02:25:19.120Z,100678.22
2023-04-18T02:26:45.077Z,100679.22
2023-04-18T02:28:06.431Z,100681.91
2023-04-18T02:29:28.327Z,100682.56
2023-04-18T02:32:46.074Z,100671.47
2023-04-18T02:34:06.872Z,100679.88
2023-04-18T02:35:29.390Z,100683.41
2023-04-18T02:36:50.380Z,100686.09
2023-04-18T02:38:13.879Z,100684.22
2023-04-18T02:39:38.619Z,100688.94
2023-04-18T02:41:00.674Z,100683.41
2023-04-18T02:42:23.367Z,100687.75
2023-04-18T02:43:47.705Z,100686.91
2023-04-18T02:45:11.390Z,100683.41
2023-04-18T02:46:33.226Z,100683.72
2023-04-18T02:47:59.389Z,100686.25
2023-04-18T02:49:21.508Z,100687.09
2023-04-18T02:50:45.951Z,100681.53
2023-04-18T02:52:08.602Z,100683.41
2023-04-18T02:53:29.788Z,100688.78
2023-04-18T02:54:52.159Z,100683.25
2023-04-18T02:56:18.984Z,100689.47
2023-04-18T02:58:03.171Z,100686.78
2023-04-18T02:59:43.990Z,100692.47
2023-04-18T03:01:21.248Z,100699.53
2023-04-18T03:02:53.526Z,100698.50
2023-04-18T03:04:30.957Z,100695.19
2023-04-18T03:05:55.252Z,100702.06
2023-04-18T03:07:17.885Z,100694.00
2023-04-18T03:08:39.137Z,100690.44
2023-04-18T03:10:01.637Z,100692.16
2023-04-18T03:11:28.700Z,100685.94
2023-04-18T03:12:50.491Z,100687.59
2023-04-18T03:14:15.415Z,100689.47
2023-04-18T03:15:43.789Z,100685.94
2023-04-18T03:17:06.112Z,100685.94
2023-04-18T03:18:34.438Z,100696.69
2023-04-18T03:19:57.677Z,100686.09
2023-04-18T03:21:18.821Z,100685.06
2023-04-18T03:22:40.954Z,100682.38
2023-04-18T03:24:02.282Z,100687.94
2023-04-18T03:25:24.598Z,100683.25
2023-04-18T03:26:47.518Z,100686.91
2023-04-18T03:28:10.168Z,100686.91
2023-04-18T03:29:32.920Z,100686.09
2023-04-18T03:30:55.424Z,100683.41
2023-04-18T03:32:18.568Z,100685.25
2023-04-18T03:33:42.448Z,100683.56
2023-04-18T03:35:05.289Z,100685.25
2023-04-18T03:36:28.852Z,100688.94
2023-04-18T03:37:51.158Z,100684.41
2023-04-18T03:39:20.187Z,100684.41
2023-04-18T03:40:42.332Z,100683.41
2023-04-18T03:42:14.185Z,100686.91
2023-04-18T03:43:37.096Z,100688.63
2023-04-18T03:45:01.159Z,100685.06
2023-04-18T03:46:25.118Z,100690.28
2023-04-18T03:47:50.044Z,100684.91
2023-04-18T03:49:12.565Z,100691.13
2023-04-18T03:50:33.732Z,100686.09
2023-04-18T03:51:57.113Z,100696.50
2023-04-18T03:53:19.826Z,100692.16
2023-04-18T03:54:40.940Z,100688.63
2023-04-18T03:56:04.870Z,100687.59
2023-04-18T03:57:58.523Z,100689.59
2023-04-18T03:59:26.680Z,100694.84
2023-04-18T04:00:52.611Z,100695.69
2023-04-18T04:02:13.746Z,100685.06
2023-04-18T04:03:38.602Z,100693.13
2023-04-18T04:05:00.667Z,100696.50
2023-04-18T04:06:22.944Z,100696.84
2023-04-18T04:07:49.656Z,100694.00
2023-04-18T04:09:11.869Z,100693.13
2023-04-18T04:10:37.563Z,100699.38
2023-04-18T04:12:03.228Z,100692.31
2023-04-18T04:13:24.531Z,100705.59
2023-04-18T04:14:46.524Z,100697.53
2023-04-18T04:16:10.351Z,100702.75
2023-04-18T04:17:33.350Z,100703.59
2023-04-18T04:18:55.449Z,100706.28
2023-04-18T04:20:24.881Z,100712.50
2023-04-18T04:21:54.358Z,100704.75
2023-04-18T04:23:17.546Z,100712.66
2023-04-18T04:24:42.849Z,100706.28
2023-04-18T04:26:05.820Z,100710.66
2023-04-18T04:27:37.090Z,100710.66
2023-04-18T04:29:00.711Z,100711.31
2023-04-18T04:30:36.096Z,100708.63
2023-04-18T04:32:00.460Z,100712.84
2023-04-18T04:33:29.860Z,100708.16
2023-04-18T04:34:58.028Z,100713.69
2023-04-18T04:36:24.945Z,100721.41
2023-04-18T04:37:52.379Z,100715.88
2023-04-18T04:39:23.093Z,100699.41
2023-04-18T04:41:02.629Z,100709.81
2023-04-18T04:42:28.675Z,100726.84
2023-04-18T04:44:04.559Z,100716.91
2023-04-18T04:45:27.886Z,100724.66
2023-04-18T04:46:50.828Z,100724.50
2023-04-18T04:48:31.377Z,100722.66
2023-04-18T04:49:53.405Z,100727.00
2023-04-18T04:51:15.567Z,100723.34
2023-04-18T04:52:40.354Z,100732.91
2023-04-18T04:54:02.659Z,100718.78
2023-04-18T04:55:25.354Z,100723.50
2023-04-18T04:56:48.036Z,100716.78
2023-04-18T04:58:10.552Z,100712.56
2023-04-18T04:59:55.594Z,100719.81
2023-04-18T05:01:18.213Z,100728.72
2023-04-18T05:02:40.694Z,100724.22
2023-04-18T05:04:13.850Z,100723.19
2023-04-18T05:05:37.125Z,100735.47
2023-04-18T05:07:00.425Z,100732.09
2023-04-18T05:08:22.683Z,100729.06
2023-04-18T05:09:44.987Z,100733.31
2023-04-18T05:11:07.166Z,100732.44
2023-04-18T05:12:32.640Z,100733.13
2023-04-18T05:13:54.961Z,100730.44
2023-04-18T05:15:17.029Z,100734.47
2023-04-18T05:16:41.886Z,100738.84
2023-04-18T05:18:04.093Z,100741.53
2023-04-18T05:19:30.559Z,100738.84
2023-04-18T05:20:55.342Z,100737.16
2023-04-18T05:22:17.458Z,100733.63
2023-04-18T05:23:38.682Z,100736.31
2023-04-18T05:25:02.649Z,100745.06
2023-04-18T05:26:25.173Z,100741.53
2023-04-18T05:27:47.687Z,100748.59
2023-04-18T05:29:13.790Z,100739.53
2023-04-18T05:30:36.180Z,100741.19
2023-04-18T05:31:58.279Z,100740.22
2023-04-18T05:33:20.540Z,100742.72
2023-04-18T05:34:43.704Z,100743.91
2023-04-18T05:36:06.813Z,100740.53
2023-04-18T05:37:27.904Z,100743.56
2023-04-18T05:38:49.807Z,100747.63
2023-04-18T05:40:17.241Z,100745.41
2023-04-18T05:41:39.046Z,100749.47
2023-04-18T05:43:00.589Z,100749.63
2023-04-18T05:44:24.285Z,100755.19
2023-04-18T05:45:46.695Z,100747.47
2023-04-18T05:47:09.121Z,100750.81
2023-04-18T05:48:31.383Z,100742.41
2023-04-18T05:49:55.031Z,100740.94
2023-04-18T05:51:17.175Z,100745.16
2023-04-18T05:52:39.482Z,100741.09
2023-04-18T05:54:01.735Z,100744.47
2023-04-18T05:55:22.910Z,100747.00
2023-04-18T05:56:45.305Z,100742.47
2023-04-18T05:58:07.546Z,100741.44
2023-04-18T05:59:29.565Z,100743.13
2023-04-18T06:00:50.702Z,100745.63
2023-04-18T06:02:14.450Z,100744.66
2023-04-18T06:03:40.014Z,100750.88
2023-04-18T06:05:03.928Z,100750.88
2023-04-18T06:06:25.175Z,100756.09
2023-04-18T06:07:48.238Z,100750.88
2023-04-18T06:09:10.524Z,100754.75
2023-04-18T06:10:32.741Z,100751.22
2023-04-18T06:11:55.032Z,100750.34
2023-04-18T06:13:16.635Z,100760.78
2023-04-18T06:14:41.385Z,100762.50
2023-04-18T06:16:03.615Z,100762.66
2023-04-18T06:17:25.864Z,100761.97
2023-04-18T06:18:48.320Z,100755.94
2023-04-18T06:20:13.000Z,100756.25
2023-04-18T06:21:34.925Z,100749.50
2023-04-18T06:22:57.124Z,100758.25
2023-04-18T06:24:19.396Z,100765.31
2023-04-18T06:25:43.148Z,100767.16
2023-04-18T06:27:14.961Z,100771.56
2023-04-18T06:28:42.858Z,100770.69
2023-04-18T06:30:09.855Z,100775.78
2023-04-18T06:31:34.425Z,100775.63
2023-04-18T06:32:55.626Z,100772.75
2023-04-18T06:34:20.929Z,100775.28
2023-04-18T06:35:44.543Z,100772.59
2023-04-18T06:37:07.173Z,100766.38
2023-04-18T06:38:29.416Z,100771.56
2023-04-18T06:39:51.700Z,100784.88
2023-04-18T06:41:17.354Z,100775.78
2023-04-18T06:42:39.933Z,100770.38
2023-04-18T06:44:10.986Z,100766.38
2023-04-18T06:45:33.292Z,100780.66
2023-04-18T06:46:54.826Z,100779.00
2023-04-18T06:48:16.994Z,100793.81
2023-04-18T06:49:38.793Z,100790.94
2023-04-18T06:51:01.953Z,100785.22
2023-04-18T06:52:24.169Z,100783.03
2023-04-18T06:53:46.130Z,100790.59
2023-04-18T06:55:09.988Z,100789.25
2023-04-18T06:56:33.046Z,100794.47
2023-04-18T06:57:56.906Z,100791.78
2023-04-18T06:59:19.468Z,100789.06
2023-04-18T07:00:41.938Z,100795.34
2023-04-18T07:02:05.218Z,100794.31
2023-04-18T07:03:27.318Z,100800.19
2023-04-18T07:04:49.359Z,100795.66
2023-04-18T07:06:38.984Z,100799.34
2023-04-18T07:08:01.481Z,100810.13
2023-04-18T07:09:30.643Z,100806.25
2023-04-18T07:11:05.922Z,100808.28
2023-04-18T07:12:33.858Z,100800.19
2023-04-18T07:13:56.004Z,100793.28
2023-04-18T07:15:18.590Z,100798.53
2023-04-18T07:16:41.061Z,100800.72
2023-04-18T07:19:06.738Z,100802.41
2023-04-18T07:20:29.299Z,100799.00
2023-04-18T07:21:58.896Z,100792.63
2023-04-18T07:23:26.249Z,100790.13
2023-04-18T07:25:04.023Z,100796.84
2023-04-18T07:26:45.422Z,100794.63
2023-04-18T07:28:07.699Z,100803.72
2023-04-18T07:29:30.266Z,100801.72
2023-04-18T07:31:04.691Z,100807.09
2023-04-18T07:32:55.279Z,100809.09
2023-04-18T07:36:25.534Z,100804.56
2023-04-18T07:38:26.549Z,100797.97
2023-04-18T07:39:53.547Z,100815.13
2023-04-18T07:41:27.701Z,100800.50
2023-04-18T07:43:48.082Z,100802.84
2023-04-18T07:45:13.376Z,100806.53
2023-04-18T07:46:38.728Z,100817.25
2023-04-18T07:48:04.228Z,100813.88
2023-04-18T07:49:29.919Z,100818.88
2023-04-18T07:50:52.236Z,100818.34
2023-04-18T07:52:36.369Z,100820.41
2023-04-18T07:54:07.625Z,100823.75
2023-04-18T07:55:32.666Z,100809.25
2023-04-18T07:57:03.398Z,100823.41
2023-04-18T07:59:36.020Z,100820.06
2023-04-18T08:01:18.822Z,100825.13
2023-04-18T08:03:02.114Z,100826.28
2023-04-18T08:17:30.640Z,100823.47
2023-04-18T08:19:10.579Z,100829.75
2023-04-18T08:21:03.216Z,100832.25
2023-04-18T08:22:30.862Z,100844.22
2023-04-18T08:23:53.465Z,100841.53
2023-04-18T08:25:16.409Z,100838.63
2023-04-18T08:26:45.498Z,100834.59
2023-04-18T08:28:07.731Z,100835.59
2023-04-18T08:29:54.301Z,100849.06
2023-04-18T08:32:12.257Z,100845.53
2023-04-18T08:33:40.354Z,100846.19
2023-04-18T08:36:04.534Z,100834.56
2023-04-18T08:37:30.387Z,100847.72
2023-04-18T08:39:32.504Z,100854.94
2023-04-18T08:40:57.812Z,100864.03
2023-04-18T08:45:21.140Z,100855.72
2023-04-18T08:46:49.483Z,100849.66
2023-04-18T08:48:14.740Z,100847.81
2023-04-18T08:57:11.568Z,100855.19
2023-04-18T08:59:05.452Z,100852.34
2023-04-18T09:00:46.102Z,100863.09
2023-04-18T09:02:12.361Z,100848.75
2023-04-18T09:03:45.817Z,100865.41
2023-04-18T09:05:22.460Z,100855.25
2023-04-18T09:06:54.056Z,100856.50
2023-04-18T09:08:31.410Z,100858.47
2023-04-18T09:10:14.157Z,100845.75
2023-04-18T09:11:38.735Z,100852.56
2023-04-18T09:13:21.680Z,100859.31
2023-04-18T09:15:14.909Z,100865.19
2023-04-18T09:16:50.893Z,100859.13
2023-04-18T09:28:08.246Z,100848.06
2023-04-18T09:32:32.039Z,100844.72
2023-04-18T09:35:18.009Z,100843.56
2023-04-18T09:37:43.293Z,100847.03
2023-04-18T09:39:31.333Z,100850.06
2023-04-18T09:45:02.915Z,100849.41
2023-04-18T09:53:05.590Z,100861.16
2023-04-18T10:13:43.104Z,100865.47
2023-04-18T10:35:47.150Z,100858.03
2023-04-18T10:40:09.663Z,100843.41
2023-04-18T10:42:39.673Z,100845.66
2023-04-18T10:45:02.156Z,100854.53
2023-04-18T10:46:31.650Z,100853.78
2023-04-18T10:49:05.651Z,100842.78
2023-04-18T10:54:03.474Z,100837.75
2023-04-18T10:56:17.097Z,100816.78
2023-04-18T10:58:11.788Z,100819.06
2023-04-18T10:59:40.494Z,100816.56
2023-04-18T11:01:44.676Z,100813.03
2023-04-18T11:03:15.386Z,100809.66
2023-04-18T11:04:47.566Z,100816.78
2023-04-18T11:07:10.944Z,100816.81
2023-04-18T11:09:27.505Z,100820.53
2023-04-18T11:13:16.662Z,100815.84
2023-04-18T11:15:16.626Z,100829.59
2023-04-18T11:16:49.213Z,100822.19
2023-04-18T11:21:21.605Z,100821.97
2023-04-18T11:23:22.910Z,100824.31
2023-04-18T11:25:41.285Z,100826.66
2023-04-18T11:28:09.808Z,100819.56
2023-04-18T11:32:49.838Z,100814.44
2023-04-18T11:35:38.276Z,100836.63
2023-04-18T11:40:36.780Z,100812.19
2023-04-18T11:42:13.345Z,100836.25
2023-04-18T11:43:35.867Z,100836.03
2023-04-18T11:47:50.234Z,100818.44
2023-04-18T11:49:44.151Z,100815.72
2023-04-18T17:18:34.300Z,100797.25
2023-04-18T17:20:05.327Z,100796.09
2023-04-18T17:25:28.584Z,100795.66
2023-04-18T17:27:50.850Z,100793.50
2023-04-18T17:29:21.503Z,100795.38
2023-04-18T17:30:51.711Z,100791.16
2023-04-18T18:05:26.096Z,100803.19
2023-04-18T18:06:55.607Z,100808.59
2023-04-18T18:08:18.013Z,100811.13
2023-04-18T18:09:41.605Z,100814.84
2023-04-18T18:11:07.591Z,100807.59
2023-04-18T18:13:03.252Z,100801.22
2023-04-18T18:14:27.754Z,100813.53
2023-04-18T18:18:22.348Z,100815.56
2023-04-18T18:19:53.536Z,100810.16
2023-04-18T18:21:17.961Z,100809.69
2023-04-18T18:22:59.838Z,100808.88
2023-04-18T18:24:22.268Z,100807.00
2023-04-18T18:25:45.706Z,100804.63
2023-04-18T18:27:19.601Z,100808.66
2023-04-18T18:28:42.085Z,100820.31
2023-04-18T18:30:10.765Z,100815.56
2023-04-18T18:31:45.484Z,100809.69
2023-04-18T18:33:23.555Z,100812.75
2023-04-18T18:34:58.372Z,100813.41
2023-04-18T18:36:25.251Z,100813.41
2023-04-18T18:37:50.840Z,100806.50
2023-04-18T18:39:25.512Z,100795.41
2023-04-18T18:41:07.544Z,100805.19
2023-04-18T18:42:33.020Z,100808.53
2023-04-18T18:44:04.673Z,100797.25
2023-04-18T18:45:32.840Z,100792.22
2023-04-18T18:47:06.065Z,100801.84
2023-04-18T18:48:39.498Z,100811.06
2023-04-18T18:50:09.855Z,100811.06
2023-04-18T18:54:38.871Z,100797.81
2023-04-18T18:57:19.903Z,100812.28
2023-04-18T18:58:50.531Z,100809.94
2023-04-18T19:00:46.667Z,100809.09
2023-04-18T19:02:31.674Z,100801.34
2023-04-18T19:03:54.597Z,100809.28
2023-04-18T19:05:29.007Z,100796.97
2023-04-18T19:07:08.917Z,100799.31
2023-04-18T19:08:31.457Z,100813.47
2023-04-18T19:10:02.985Z,100803.69
2023-04-18T19:11:58.039Z,100801.84
2023-04-18T19:13:28.498Z,100806.41
2023-04-18T19:14:51.337Z,100797.81
2023-04-18T19:16:21.531Z,100797.34
2023-04-18T19:17:44.477Z,100795.47
2023-04-18T19:19:16.030Z,100791.09
2023-04-18T19:21:01.880Z,100809.09
2023-04-18T19:22:38.914Z,100785.69
2023-04-18T19:24:12.176Z,100790.22
2023-04-18T19:25:42.278Z,100793.59
2023-04-18T19:27:06.067Z,100801.00
2023-04-18T19:28:37.642Z,100802.00
2023-04-18T19:30:34.470Z,100793.44
2023-04-18T19:31:59.573Z,100783.00
2023-04-18T19:33:24.286Z,100789.53
2023-04-18T19:34:46.777Z,100794.94
2023-04-18T19:36:09.329Z,100791.41
2023-04-18T19:37:36.297Z,100792.22
2023-04-18T19:38:58.334Z,100792.22
2023-04-18T19:40:20.722Z,100797.44
2023-04-18T19:41:44.409Z,100784.28
2023-04-18T19:43:09.112Z,100789.69
2023-04-18T19:44:42.032Z,100774.56
2023-04-18T19:46:06.743Z,100785.50
2023-04-18T19:47:32.348Z,100792.41
2023-04-18T19:48:54.959Z,100787.00
2023-04-18T19:50:23.589Z,100783.63
2023-04-18T19:51:46.138Z,100788.84
2023-04-18T19:53:08.313Z,100786.31
2023-04-18T19:54:35.726Z,100775.72
2023-04-18T19:55:58.519Z,100786.16
2023-04-18T19:57:24.555Z,100783.81
2023-04-18T19:58:47.089Z,100786.16
2023-04-18T20:00:16.345Z,100780.28
2023-04-18T20:01:44.028Z,100783.16
2023-04-18T20:03:06.772Z,100782.31
2023-04-18T20:04:33.960Z,100784.00
2023-04-18T20:05:56.416Z,100785.69
2023-04-18T20:07:18.531Z,100789.41
2023-04-18T20:08:43.437Z,100779.63
2023-04-18T20:10:06.843Z,100785.03
2023-04-18T20:11:29.192Z,100777.75
2023-04-18T20:12:52.885Z,100774.38
2023-04-18T20:14:21.366Z,100778.75
2023-04-18T20:15:44.302Z,100776.06
2023-04-18T20:17:05.591Z,100773.34
2023-04-18T20:18:27.796Z,100768.03
2023-04-18T20:19:51.117Z,100777.94
2023-04-18T20:21:13.535Z,100775.41
2023-04-18T20:22:40.496Z,100770.84
2023-04-18T20:24:03.776Z,100777.09
2023-04-18T20:25:26.420Z,100773.72
2023-04-18T20:26:47.856Z,100771.84
2023-04-18T20:28:13.200Z,100768.53
2023-04-18T20:29:38.240Z,100768.69
2023-04-18T20:31:02.180Z,100770.34
2023-04-18T20:32:24.411Z,100771.03
2023-04-18T20:33:48.821Z,100772.88
2023-04-18T20:35:10.270Z,100764.94
2023-04-18T20:36:34.605Z,100764.94
2023-04-18T20:37:56.238Z,100769.22
2023-04-18T20:39:18.552Z,100769.06
2023-04-18T20:40:45.066Z,100766.34
2023-04-18T20:42:07.601Z,100765.69
2023-04-18T20:43:37.610Z,100773.78
2023-04-18T20:44:59.898Z,100772.13
2023-04-18T20:46:21.247Z,100760.66
2023-04-18T20:47:44.694Z,100759.16
2023-04-18T20:49:10.428Z,100763.34
2023-04-18T20:50:32.823Z,100771.47
2023-04-18T20:51:56.630Z,100763.34
2023-04-18T20:53:20.850Z,100761.66
2023-04-18T20:54:43.160Z,100758.97
2023-04-18T20:56:05.747Z,100756.63
2023-04-18T20:57:27.970Z,100755.41
2023-04-18T20:58:51.383Z,100760.81
2023-04-18T21:00:14.604Z,100762.03
2023-04-18T21:01:37.343Z,100756.63
2023-04-18T21:02:59.895Z,100753.25
2023-04-18T21:04:21.909Z,100763.88
2023-04-18T21:05:44.314Z,100752.13
2023-04-18T21:07:06.822Z,100746.56
2023-04-18T21:08:30.001Z,100751.94
2023-04-18T21:09:52.010Z,100755.66
2023-04-18T21:11:15.280Z,100749.41
2023-04-18T21:12:37.345Z,100747.75
2023-04-18T21:13:59.763Z,100747.75
2023-04-18T21:15:22.283Z,100751.47
2023-04-18T21:16:49.768Z,100745.22
2023-04-18T21:18:12.001Z,100749.59
2023-04-18T21:19:37.190Z,100740.00
2023-04-18T21:21:01.819Z,100749.78
2023-04-18T21:22:25.699Z,100745.38
2023-04-18T21:23:47.812Z,100739.16
2023-04-18T21:25:10.877Z,100733.44
2023-04-18T21:26:35.754Z,100741.69
2023-04-18T21:27:57.679Z,100737.28
2023-04-18T21:29:21.898Z,100739.16
2023-04-18T21:30:44.303Z,100734.94
2023-04-18T21:32:06.926Z,100737.66
2023-04-18T21:33:29.081Z,100737.66
2023-04-18T21:34:51.319Z,100728.88
2023-04-18T21:36:12.522Z,100738.84
2023-04-18T21:37:34.883Z,100729.09
2023-04-18T21:38:58.105Z,100729.41
2023-04-18T21:40:20.848Z,100739.03
2023-04-18T21:41:43.168Z,100728.22
2023-04-18T21:43:04.423Z,100740.06
2023-04-18T21:44:28.036Z,100727.44
2023-04-18T21:45:50.192Z,100727.75
2023-04-18T21:47:12.287Z,100732.31
2023-04-18T21:48:40.231Z,100726.91
2023-04-18T21:50:03.491Z,100726.41
2023-04-18T21:51:27.377Z,100722.72
2023-04-18T21:52:49.822Z,100722.06
2023-04-18T21:54:11.965Z,100723.72
2023-04-18T21:55:36.227Z,100719.34
2023-04-18T21:56:58.619Z,100713.44
2023-04-18T21:58:19.790Z,100723.09
2023-04-18T21:59:43.464Z,100713.44
2023-04-18T22:01:04.842Z,100718.00
2023-04-18T22:02:29.121Z,100724.91
2023-04-18T22:03:50.834Z,100716.16
2023-04-18T22:05:18.267Z,100714.47
2023-04-18T22:06:41.683Z,100703.22
2023-04-18T22:08:03.360Z,100719.06
2023-04-18T22:09:25.746Z,100712.81
2023-04-18T22:10:50.758Z,100718.22
2023-04-18T22:12:16.111Z,100693.13
2023-04-18T22:16:22.344Z,100707.13
2023-04-18T22:17:45.046Z,100703.75
2023-04-18T22:19:28.617Z,100698.72
2023-04-18T22:24:55.206Z,100682.41
2023-04-18T22:30:11.810Z,100676.38
2023-04-18T22:31:03.901Z,100682.13
2023-04-18T22:32:30.395Z,100687.16
2023-04-18T22:34:01.601Z,100693.06
2023-04-18T22:36:05.427Z,100688.19
2023-04-18T22:38:13.827Z,100682.50
2023-04-18T22:39:39.150Z,100672.41
2023-04-18T22:41:08.160Z,100680.84
2023-04-18T22:42:30.129Z,100682.50
2023-04-18T22:43:54.852Z,100675.44
2023-04-18T22:45:16.172Z,100683.16
2023-04-18T22:46:39.622Z,100671.22
2023-04-18T22:48:04.636Z,100674.56
2023-04-18T22:49:26.307Z,100672.53
2023-04-18T22:50:51.577Z,100669.84
2023-04-18T22:52:14.355Z,100669.00
2023-04-18T22:53:36.685Z,100665.28
2023-04-18T22:54:57.822Z,100656.22
2023-04-18T22:56:20.550Z,100667.16
2023-04-18T22:57:42.239Z,100660.25
2023-04-18T22:59:04.975Z,100660.91
2023-04-18T23:00:26.139Z,100669.00
2023-04-18T23:01:48.826Z,100659.09
2023-04-18T23:03:11.720Z,100657.91
2023-04-18T23:04:34.780Z,100659.56
2023-04-18T23:05:57.107Z,100658.28
2023-04-18T23:07:18.308Z,100670.72
2023-04-18T23:08:40.703Z,100651.53
2023-04-18T23:10:01.861Z,100648.69
2023-04-18T23:11:24.506Z,100649.69
2023-04-18T23:12:46.080Z,100640.44
2023-04-18T23:14:08.735Z,100652.72
2023-04-18T23:15:31.339Z,100643.81
2023-04-18T23:16:52.991Z,100631.00
2023-04-18T23:18:19.136Z,100635.88
2023-04-18T23:19:40.588Z,100633.53
2023-04-18T23:21:06.242Z,100641.13
2023-04-18T23:22:29.612Z,100633.19
2023-04-18T23:23:52.006Z,100639.59
2023-04-18T23:25:13.127Z,100641.47
2023-04-18T23:27:06.231Z,100632.50
2023-04-18T23:28:52.945Z,100633.72
2023-04-18T23:30:17.041Z,100639.31
2023-04-18T23:32:11.684Z,100625.31
2023-04-18T23:35:56.697Z,100619.31
2023-04-18T23:37:21.210Z,100615.94
2023-04-18T23:38:54.907Z,100599.13
2023-04-18T23:40:16.953Z,100608.56
2023-04-18T23:41:38.567Z,100613.97
2023-04-18T23:43:00.995Z,100606.38
2023-04-18T23:46:49.267Z,100606.25
2023-04-18T23:48:11.542Z,100612.16
2023-04-18T23:49:57.151Z,100607.75
2023-04-18T23:51:18.460Z,100605.41
2023-04-18T23:53:25.671Z,100600.38
2023-04-18T23:56:55.687Z,100590.94
2023-04-18T23:58:24.722Z,100592.09
2023-04-18T23:59:49.382Z,100597.19
